Waynesville, GA

1:30 AM EDT on August 04, 2015 (GMT -0400)
KGAHORTE3 | | Change Station
CLOSE
Current Station
Personal Weather Station
Location: Hortense, GA
Elevation: 56 ft
Nearby Weather Stations

Elev 56 ft 31.34 °N, 81.96 °W | Updated 15 seconds ago

Clear
Clear
78.8 °F
Feels Like 77 °F
N
0.0
Wind Variable Wind from WNW
Gusts 0.0 mph

Today
High -- | Low -- °F
--% Chance of Precip.
Yesterday
High -- | Low -- °F
Precip. -- in
6:45 AM 8:20 PM
Waning Gibbous, 81% visible
Pressure 29.91 in
Visibility 3.0 miles
Clouds Scattered Clouds 700 ft
Scattered Clouds 1900 ft
Heat Index 77 °F
Dew Point Not available.
Humidity Not available.
Rainfall 0.00 in
Snow Depth Not available.
UV 0 out of 12
Pollen 2.50 out of 12
Air Quality Not available.
Flu Activity Not available.
METAR KBQK 040515Z AUTO 28004KT 3SM SCT007 SCT019 25/24 A2991 RMK AO1 LTG DSNT E

More Conditions Fewer Conditions

Pressure 29.91 in
Visibility 3.0 miles
Clouds Scattered Clouds 700 ft
Scattered Clouds 1900 ft
Heat Index 77 °F
Dew Point Not available.
Humidity Not available.
Rainfall 0.00 in
Snow Depth Not available.
UV 0 out of 12
Pollen 2.50 out of 12
Air Quality Not available.
Flu Activity Not available.
METAR KBQK 040515Z AUTO 28004KT 3SM SCT007 SCT019 25/24 A2991 RMK AO1 LTG DSNT E

More Conditions Fewer Conditions

10-Day Weather Forecast

×

Almanac

Astronomy

Aug. 04, 2015 Rise Set
Actual Time
Civil Twilight
Nautical Twilight
Astronomical Twilight
Moon
Length of Visible Light
Length of Day
Tomorrow will be .
, % of the Moon is Illuminated

Today's Extremes

State Highs State Lows

Community

WunderPhotos

Upload Photos

1,843,868 photos uploaded!

WunderBlogs® & News

Nearby

Air Quality

  Air Quality AQ Index Pollutant
Not available.

Snow Depth

Station Depth Elevation

Earthquake Activity

City Distance Mag. Time & Date
Minimum magnitude displayed is 2.5.

Coastal Water Temperatures

Place Temperature

Stations

Nearby Weather Stations

Station Location Temp. Windchill Dew Point Humidity Wind Precip. Elev Updated Type